Fort Vermilion, Canada
Current Conditions -  °F | °C
As of 1:00 PM on Friday 21 Nov 2014 (Local Time) from CYOJ Reporting Station
Broken Clouds Broken Clouds  
Wind Chill:   Ceiling: 8000
Heat Index: 16°   Visibility: 15mi
Dew Point:   Wind: 13mph
Humidity: 73%   Direction: 360°N
Pressure: 29.69"   Gusts: 20mph
Location:  58.4°N, 116°W
Report Text: CYOJ 212000Z 36011G17KT 15SM FEW014 BKN080 BKN260 M09/M13 A2969 RMK SC1AC5CI1 SLP080
Loading
Personal Weather Stations






























Interactive Weather Map New forecast layout! Learn more

10-Day Weather Forecast

Advertisements
Track Severe Weather on mobile